Time;durP1;ratioP1;P1;durP2;ratioP2;P2;SDS_P1;SDS_P2;PMS_P1;PMS_P2;Temp;Humidity;BMP_temperature;BMP_pressure;BME280_temperature;BME280_humidity;BME280_pressure;Samples;Min_cycle;Max_cycle;Signal;HPM_P1;HPM_P2
2023/07/09 00:01:40;;;;;;;;;8.50;8.50;;;;;28.35;53.14;101222.72;4959441;28;46581;-64
2023/07/09 00:04:09;;;;;;;;;9.50;9.50;;;;;28.34;53.40;101226.47;4959973;28;45321;-64
2023/07/09 00:06:34;;;;;;;;;10.00;10.00;;;;;28.26;53.36;101223.63;4960794;28;45434;-64
2023/07/09 00:09:00;;;;;;;;;9.25;7.50;;;;;28.28;53.59;101229.84;4959697;28;50939;-63
2023/07/09 00:11:25;;;;;;;;;8.00;8.00;;;;;28.21;53.74;101234.22;4958471;28;53862;-64
2023/07/09 00:13:50;;;;;;;;;9.75;8.75;;;;;28.24;53.76;101233.91;4959718;28;45733;-63
2023/07/09 00:16:21;;;;;;;;;12.00;10.75;;;;;28.21;54.03;101237.81;4957796;28;45366;-64
2023/07/09 00:18:48;;;;;;;;;9.75;9.50;;;;;28.15;54.29;101234.81;4960028;28;45431;-63
2023/07/09 00:21:14;;;;;;;;;7.25;7.25;;;;;28.12;53.69;101227.78;4972705;28;46258;-63
2023/07/09 00:23:39;;;;;;;;;8.75;8.00;;;;;28.09;53.92;101237.16;4959993;28;45487;-63
2023/07/09 00:26:15;;;;;;;;;9.00;8.00;;;;;28.15;54.22;101246.69;4959645;28;45342;-64
2023/07/09 00:28:42;;;;;;;;;8.75;8.75;;;;;28.10;54.22;101238.03;4954763;28;45440;-64
2023/07/09 00:31:13;;;;;;;;;11.00;9.75;;;;;28.07;54.28;101238.34;4957700;28;45348;-63
2023/07/09 00:33:39;;;;;;;;;10.25;10.25;;;;;28.01;54.19;101231.56;4955467;28;45461;-63
2023/07/09 00:36:14;;;;;;;;;4.00;4.00;;;;;28.05;54.84;101240.34;4966249;28;45271;-64
2023/07/09 00:38:40;;;;;;;;;7.50;7.50;;;;;28.02;54.18;101238.78;4966077;28;45281;-63
2023/07/09 00:41:17;;;;;;;;;5.25;5.25;;;;;27.94;53.85;101226.84;4963658;28;45468;-64
2023/07/09 00:43:44;;;;;;;;;9.00;9.00;;;;;28.03;54.24;101247.88;4965682;28;45286;-63
2023/07/09 00:46:20;;;;;;;;;11.00;11.00;;;;;27.98;54.14;101247.47;4965903;28;45431;-63
2023/07/09 00:48:52;;;;;;;;;9.75;8.75;;;;;27.99;54.65;101250.06;4965073;28;45514;-63
2023/07/09 00:51:20;;;;;;;;;7.25;7.25;;;;;27.96;54.62;101255.84;4968697;28;45429;-63
2023/07/09 00:53:47;;;;;;;;;9.00;9.00;;;;;27.97;54.80;101262.22;4965596;28;45313;-63
2023/07/09 00:56:19;;;;;;;;;9.00;9.00;;;;;27.96;54.74;101260.50;4965926;28;45341;-64
2023/07/09 00:58:48;;;;;;;;;9.75;9.00;;;;;27.88;55.01;101259.34;4953660;28;45407;-64
2023/07/09 01:01:18;;;;;;;;;9.75;9.75;;;;;27.93;55.20;101264.38;4965567;28;46399;-63
2023/07/09 01:03:58;;;;;;;;;9.00;9.00;;;;;27.90;55.26;101259.19;4965808;28;45836;-63
2023/07/09 01:06:34;;;;;;;;;8.25;8.25;;;;;27.86;55.30;101258.59;4965841;28;45349;-63
2023/07/09 01:09:01;;;;;;;;;8.25;8.25;;;;;27.83;55.61;101266.28;4965308;28;45458;-63
2023/07/09 01:11:27;;;;;;;;;9.75;8.75;;;;;27.79;55.43;101262.09;4964584;28;45355;-64
2023/07/09 01:13:55;;;;;;;;;10.75;9.75;;;;;27.75;55.67;101267.03;4964134;28;45710;-63
2023/07/09 01:16:25;;;;;;;;;9.75;9.50;;;;;27.69;55.45;101267.63;4965839;28;45476;-63
2023/07/09 01:18:51;;;;;;;;;7.00;7.00;;;;;27.69;56.35;101270.38;4956857;28;45877;-63
2023/07/09 01:21:16;;;;;;;;;9.75;8.25;;;;;27.62;55.94;101267.34;4965482;28;46570;-63
2023/07/09 01:23:44;;;;;;;;;10.75;10.75;;;;;27.56;55.91;101264.34;4963684;28;45480;-63
2023/07/09 01:26:24;;;;;;;;;9.75;9.75;;;;;27.59;56.00;101278.63;4965449;28;45469;-63
2023/07/09 01:28:50;;;;;;;;;10.75;10.75;;;;;27.54;55.98;101267.22;4952533;28;45500;-63
2023/07/09 01:31:16;;;;;;;;;7.50;6.50;;;;;27.51;56.63;101273.00;4959878;28;45472;-64
2023/07/09 01:33:44;;;;;;;;;10.25;10.25;;;;;27.44;56.79;101275.47;4964664;28;45363;-63
2023/07/09 01:36:15;;;;;;;;;11.75;10.00;;;;;27.45;56.82;101281.81;4962856;28;45484;-64
2023/07/09 01:38:42;;;;;;;;;8.25;8.25;;;;;27.41;56.77;101281.25;4963019;28;45455;-63
2023/07/09 01:41:07;;;;;;;;;8.25;7.25;;;;;27.38;56.82;101295.22;4960457;28;45413;-63
2023/07/09 01:43:34;;;;;;;;;9.50;9.50;;;;;27.36;57.04;101294.50;4956873;28;45638;-63
2023/07/09 01:45:59;;;;;;;;;11.50;10.00;;;;;27.24;57.45;101285.56;4962215;28;45484;-63
2023/07/09 01:48:25;;;;;;;;;7.50;7.50;;;;;27.29;57.27;101302.47;4961774;28;46880;-63
2023/07/09 01:50:53;;;;;;;;;11.00;10.25;;;;;27.27;57.59;101300.84;4965467;28;45424;-63
2023/07/09 01:53:23;;;;;;;;;9.00;9.00;;;;;27.24;57.74;101303.88;4961259;28;45322;-63
2023/07/09 01:55:53;;;;;;;;;10.75;9.75;;;;;27.21;58.03;101305.03;4961709;28;45532;-64
2023/07/09 01:58:18;;;;;;;;;11.00;9.00;;;;;27.20;57.67;101305.16;4960596;28;45421;-63
2023/07/09 02:00:44;;;;;;;;;11.00;10.75;;;;;27.17;57.67;101307.19;4957013;28;60315;-64
2023/07/09 02:03:10;;;;;;;;;9.25;9.25;;;;;27.15;58.19;101309.22;4959163;28;45258;-63
2023/07/09 02:05:37;;;;;;;;;10.00;10.00;;;;;27.14;58.11;101312.09;4962728;28;45333;-64
2023/07/09 02:08:03;;;;;;;;;9.00;9.00;;;;;27.09;58.05;101298.81;4961867;28;45392;-63
2023/07/09 02:10:28;;;;;;;;;12.50;9.75;;;;;27.03;58.19;101296.69;4961427;28;45448;-64
2023/07/09 02:12:54;;;;;;;;;8.50;8.50;;;;;27.05;57.74;101299.25;4956021;28;46986;-63
2023/07/09 02:15:19;;;;;;;;;4.25;4.25;;;;;27.08;57.72;101308.06;4959823;28;45449;-63
2023/07/09 02:17:45;;;;;;;;;9.00;9.00;;;;;27.08;58.33;101302.59;4961397;28;45400;-64
2023/07/09 02:20:12;;;;;;;;;9.75;9.75;;;;;27.01;58.39;101293.19;4961482;28;45397;-63
2023/07/09 02:22:39;;;;;;;;;12.25;11.00;;;;;27.04;58.28;101292.06;4960283;28;45394;-64
2023/07/09 02:25:08;;;;;;;;;9.75;9.50;;;;;27.03;58.47;101299.44;4961415;28;45337;-63
2023/07/09 02:27:36;;;;;;;;;11.50;10.25;;;;;26.98;58.27;101297.09;4961364;28;45492;-63
2023/07/09 02:30:02;;;;;;;;;11.50;10.25;;;;;26.97;58.35;101295.38;4954084;28;46331;-63
2023/07/09 02:32:28;;;;;;;;;12.00;10.75;;;;;26.93;58.57;101282.97;4960140;28;45388;-63
2023/07/09 02:34:54;;;;;;;;;9.25;9.25;;;;;26.93;58.61;101293.94;4961412;28;45456;-63
2023/07/09 02:37:25;;;;;;;;;8.75;7.25;;;;;26.88;58.51;101290.75;4961343;28;45334;-63
2023/07/09 02:39:51;;;;;;;;;9.25;9.25;;;;;26.89;58.84;101303.44;4958629;28;47562;-64
2023/07/09 02:42:19;;;;;;;;;6.50;6.25;;;;;26.83;58.88;101294.91;4961911;28;45457;-63
2023/07/09 02:44:45;;;;;;;;;13.00;13.00;;;;;26.82;58.89;101301.41;4961587;28;45235;-64
2023/07/09 02:47:13;;;;;;;;;11.25;8.00;;;;;26.82;59.02;101296.81;4960741;28;45488;-63
2023/07/09 02:49:38;;;;;;;;;10.75;10.75;;;;;26.81;59.04;101300.53;4960686;28;46912;-63
2023/07/09 02:52:04;;;;;;;;;10.00;8.75;;;;;26.77;58.91;101305.44;4961090;28;45358;-64
2023/07/09 02:54:30;;;;;;;;;9.75;8.75;;;;;26.75;59.66;101306.59;4961028;28;45401;-63
2023/07/09 02:56:56;;;;;;;;;10.00;10.00;;;;;26.74;59.40;101304.84;4960576;28;45401;-63
2023/07/09 02:59:21;;;;;;;;;9.50;9.00;;;;;26.72;59.51;101313.22;4960830;28;45377;-63
2023/07/09 03:01:47;;;;;;;;;11.00;11.00;;;;;26.64;59.26;101295.75;4952745;28;45546;-63
2023/07/09 03:04:15;;;;;;;;;10.25;10.25;;;;;26.59;59.56;101299.75;4976078;28;45388;-63
2023/07/09 03:06:40;;;;;;;;;11.25;10.25;;;;;26.59;59.68;101296.16;4955085;28;45592;-63
2023/07/09 03:09:06;;;;;;;;;8.25;7.75;;;;;26.64;59.57;101312.19;4960440;28;45312;-63
2023/07/09 03:11:33;;;;;;;;;11.75;11.00;;;;;26.62;59.43;101309.56;4958848;28;45518;-63
2023/07/09 03:13:59;;;;;;;;;9.00;9.00;;;;;26.59;59.72;101307.09;4958384;28;45328;-63
2023/07/09 03:16:29;;;;;;;;;12.00;10.75;;;;;26.60;59.61;101326.13;4960816;28;45604;-63
2023/07/09 03:18:55;;;;;;;;;11.50;9.50;;;;;26.55;60.44;101320.22;4959503;28;45469;-63
2023/07/09 03:21:22;;;;;;;;;10.75;9.50;;;;;26.54;60.42;101318.47;4957388;28;45348;-63
2023/07/09 03:23:47;;;;;;;;;9.75;9.25;;;;;26.51;60.24;101321.47;4960611;28;45779;-63
2023/07/09 03:26:12;;;;;;;;;9.00;9.00;;;;;26.49;60.02;101323.50;4968475;28;49638;-63
2023/07/09 03:28:38;;;;;;;;;9.25;7.75;;;;;26.52;60.95;101338.78;4957456;28;45524;-63
2023/07/09 03:31:03;;;;;;;;;9.75;8.25;;;;;26.44;60.31;101325.78;4959231;28;45469;-63
2023/07/09 03:33:28;;;;;;;;;10.00;8.50;;;;;26.41;60.58;101326.94;4959400;28;45456;-63
2023/07/09 03:35:54;;;;;;;;;10.75;9.25;;;;;26.46;60.39;101331.97;4953276;28;45626;-64
2023/07/09 03:38:19;;;;;;;;;9.75;8.75;;;;;26.38;60.55;101313.53;4960539;28;45422;-64
2023/07/09 03:40:45;;;;;;;;;9.00;9.00;;;;;26.41;60.41;101326.94;4952355;28;45672;-63
2023/07/09 03:43:10;;;;;;;;;6.75;6.50;;;;;26.38;60.49;101327.22;4960515;28;45413;-64
2023/07/09 03:45:37;;;;;;;;;9.50;9.25;;;;;26.41;60.66;101335.16;4960197;28;45589;-64
2023/07/09 03:48:04;;;;;;;;;7.50;7.50;;;;;26.40;60.36;101329.81;4960547;28;45326;-63
2023/07/09 03:50:29;;;;;;;;;8.25;8.25;;;;;26.30;60.36;101318.84;4959933;28;45426;-63
2023/07/09 03:52:55;;;;;;;;;8.00;8.00;;;;;26.35;60.61;101332.09;4960283;28;45254;-64
2023/07/09 03:55:20;;;;;;;;;7.75;7.75;;;;;26.29;60.45;101324.44;4953662;28;55080;-63
2023/07/09 03:57:46;;;;;;;;;9.50;8.25;;;;;26.30;60.84;101334.41;4958053;28;45483;-63
2023/07/09 04:00:12;;;;;;;;;9.50;9.50;;;;;26.24;60.66;101328.47;4958476;28;45380;-63
2023/07/09 04:02:39;;;;;;;;;6.00;6.00;;;;;26.20;60.92;101326.16;4960280;28;45406;-63
2023/07/09 04:05:06;;;;;;;;;9.00;9.00;;;;;26.13;60.96;101314.88;4962186;28;45690;-63
2023/07/09 04:07:31;;;;;;;;;9.75;9.00;;;;;26.21;60.96;101333.31;4959449;28;46088;-63
2023/07/09 04:09:56;;;;;;;;;7.50;6.00;;;;;26.16;60.35;101325.56;4946691;28;45376;-64
2023/07/09 04:12:22;;;;;;;;;10.25;8.00;;;;;26.16;61.10;101332.88;4960053;28;45484;-63
2023/07/09 04:14:47;;;;;;;;;9.00;9.00;;;;;26.17;60.88;101340.94;4960519;28;45373;-63
2023/07/09 04:17:12;;;;;;;;;6.00;6.00;;;;;26.16;60.29;101333.75;4959761;28;51193;-64
2023/07/09 04:19:38;;;;;;;;;7.75;7.75;;;;;26.10;60.61;101338.91;4959964;28;45318;-63
2023/07/09 04:22:04;;;;;;;;;8.75;8.50;;;;;26.14;60.78;101345.84;4960105;28;45386;-63
2023/07/09 04:24:31;;;;;;;;;9.75;8.50;;;;;26.14;60.35;101343.09;4959702;28;45589;-63
2023/07/09 04:26:57;;;;;;;;;10.50;10.50;;;;;26.08;60.61;101330.84;4959551;28;45483;-63
2023/07/09 04:29:25;;;;;;;;;8.00;8.00;;;;;25.91;60.80;101312.28;4946291;28;45461;-63
2023/07/09 04:31:50;;;;;;;;;7.00;7.00;;;;;26.07;60.41;101340.91;4959547;28;53208;-63
2023/07/09 04:34:15;;;;;;;;;8.00;7.75;;;;;26.06;61.01;101336.44;4959341;28;45452;-63
2023/07/09 04:36:41;;;;;;;;;9.00;9.00;;;;;26.11;60.72;101346.09;4959214;28;45478;-63
2023/07/09 04:39:06;;;;;;;;;8.00;8.00;;;;;26.07;60.52;101340.03;4959265;28;45446;-64
2023/07/09 04:41:32;;;;;;;;;9.50;8.50;;;;;26.07;60.79;101331.84;4959802;28;45609;-63
2023/07/09 04:43:57;;;;;;;;;9.25;8.00;;;;;26.05;60.35;101333.84;4959532;28;45415;-63
2023/07/09 04:46:23;;;;;;;;;10.00;9.50;;;;;26.10;61.43;101341.66;4959096;28;56431;-63
2023/07/09 04:48:48;;;;;;;;;7.50;7.25;;;;;26.03;60.61;101333.97;4959510;28;45378;-63
2023/07/09 04:51:14;;;;;;;;;9.00;9.00;;;;;26.04;60.90;101334.84;4959501;28;45502;-63
2023/07/09 04:53:39;;;;;;;;;11.75;10.00;;;;;25.97;61.19;101307.16;4958655;28;45224;-63
2023/07/09 04:56:05;;;;;;;;;9.50;9.00;;;;;26.02;60.64;101321.28;4956321;28;45405;-63
2023/07/09 04:58:31;;;;;;;;;9.75;8.25;;;;;26.02;60.72;101326.75;4944093;28;45486;-63
2023/07/09 05:00:57;;;;;;;;;8.25;8.00;;;;;25.97;60.39;101322.72;4957847;28;45468;-63
2023/07/09 05:03:23;;;;;;;;;8.00;6.75;;;;;25.88;60.20;101311.56;4956347;28;45507;-63
2023/07/09 05:05:48;;;;;;;;;10.75;9.00;;;;;25.83;60.52;101300.16;4970415;28;45532;-63
2023/07/09 05:08:14;;;;;;;;;11.00;10.00;;;;;25.88;60.21;101317.03;4951836;28;45391;-63
2023/07/09 05:10:48;;;;;;;;;7.25;7.25;;;;;25.84;59.78;101328.34;4958035;28;45465;-63
2023/07/09 05:13:14;;;;;;;;;8.25;8.00;;;;;25.79;59.87;101331.50;4963382;28;45462;-63
2023/07/09 05:15:41;;;;;;;;;10.50;9.50;;;;;25.76;59.80;101328.16;4956538;28;46152;-63
2023/07/09 05:18:07;;;;;;;;;9.25;9.25;;;;;25.70;59.59;101318.66;4951131;28;45341;-63
2023/07/09 05:20:33;;;;;;;;;10.00;10.00;;;;;25.71;59.93;101314.94;4962231;28;45381;-63
2023/07/09 05:22:58;;;;;;;;;8.75;7.25;;;;;25.65;59.92;101307.25;4962733;28;45359;-63
2023/07/09 05:25:23;;;;;;;;;9.25;9.25;;;;;25.67;59.68;101313.44;4962117;28;45479;-63
2023/07/09 05:27:49;;;;;;;;;7.25;7.25;;;;;25.68;60.10;101317.91;4959634;28;57285;-63
2023/07/09 05:30:14;;;;;;;;;10.00;8.00;;;;;25.57;59.33;101307.91;4960216;28;45523;-63
2023/07/09 05:32:39;;;;;;;;;8.00;7.00;;;;;25.61;59.85;101333.09;4960722;28;45463;-63
2023/07/09 05:35:05;;;;;;;;;8.00;8.00;;;;;25.63;60.33;101342.91;4954960;28;45421;-63
2023/07/09 05:37:31;;;;;;;;;11.00;10.25;;;;;25.57;60.07;101326.19;4961233;28;45356;-63
2023/07/09 05:39:56;;;;;;;;;9.00;9.00;;;;;25.56;59.75;101329.91;4962382;28;45524;-63
2023/07/09 05:42:21;;;;;;;;;9.50;7.00;;;;;25.62;59.75;101338.44;4961148;28;45470;-63
2023/07/09 05:44:47;;;;;;;;;11.00;8.50;;;;;25.59;59.60;101332.38;4946654;28;47150;-63
2023/07/09 05:47:12;;;;;;;;;6.25;6.25;;;;;25.56;59.41;101324.44;4961624;28;45417;-63
2023/07/09 05:49:38;;;;;;;;;6.25;6.25;;;;;25.58;59.89;101330.66;4963901;28;45496;-63
2023/07/09 05:52:04;;;;;;;;;11.25;10.00;;;;;25.54;59.83;101318.25;4962800;28;45428;-63
2023/07/09 05:54:29;;;;;;;;;9.00;7.50;;;;;25.55;59.25;101307.19;4957690;28;46328;-63
2023/07/09 05:56:54;;;;;;;;;8.00;8.00;;;;;25.59;59.72;101307.78;4961533;28;46386;-63
2023/07/09 05:59:20;;;;;;;;;8.00;8.00;;;;;25.60;59.71;101315.00;4961344;28;45373;-63
2023/07/09 06:01:45;;;;;;;;;9.75;7.75;;;;;25.64;59.50;101316.44;4961853;28;45521;-63
2023/07/09 06:04:13;;;;;;;;;9.25;9.00;;;;;25.61;58.99;101316.69;4962027;28;46209;-63
2023/07/09 06:06:39;;;;;;;;;8.25;8.25;;;;;25.62;58.88;101315.72;4962310;28;45766;-63
2023/07/09 06:09:05;;;;;;;;;9.00;8.00;;;;;25.66;59.50;101325.38;4961843;28;45356;-63
2023/07/09 06:11:30;;;;;;;;;7.75;7.75;;;;;25.55;58.80;101309.06;4961799;28;45604;-63
2023/07/09 06:13:55;;;;;;;;;6.00;6.00;;;;;25.61;59.04;101325.78;4960799;28;51200;-63
2023/07/09 06:16:21;;;;;;;;;9.00;9.00;;;;;25.58;58.71;101320.59;4959979;28;45706;-63
2023/07/09 06:18:46;;;;;;;;;5.00;5.00;;;;;25.57;58.62;101334.38;4962034;28;45359;-63
2023/07/09 06:21:12;;;;;;;;;7.75;6.75;;;;;25.50;58.78;101342.25;4961321;28;51682;-64
2023/07/09 06:23:38;;;;;;;;;7.25;6.00;;;;;25.47;58.21;101354.28;4964889;28;46405;-63
2023/07/09 06:26:03;;;;;;;;;8.00;8.00;;;;;25.41;58.29;101348.50;4962039;28;45652;-68
2023/07/09 06:28:31;;;;;;;;;6.00;6.00;;;;;25.45;59.01;101356.31;4960674;28;50793;-67
2023/07/09 06:30:56;;;;;;;;;7.50;6.75;;;;;25.36;58.69;101346.19;4955935;28;45572;-67
2023/07/09 06:33:23;;;;;;;;;7.50;7.50;;;;;25.30;59.03;101352.16;4961338;28;45533;-67
2023/07/09 06:35:51;;;;;;;;;4.50;4.50;;;;;25.40;58.72;101369.50;4961262;28;45327;-67
2023/07/09 06:38:17;;;;;;;;;5.00;5.00;;;;;25.47;58.59;101369.84;4955156;28;45410;-71
2023/07/09 06:40:42;;;;;;;;;5.00;5.00;;;;;25.45;58.58;101372.69;4956976;28;45370;-67
2023/07/09 06:43:08;;;;;;;;;8.50;7.75;;;;;25.50;57.83;101373.16;4961173;28;45551;-67
2023/07/09 06:45:33;;;;;;;;;7.50;6.75;;;;;25.43;58.24;101365.66;4964312;28;45406;-67
2023/07/09 06:48:00;;;;;;;;;5.25;5.25;;;;;25.42;58.65;101374.84;4959655;28;45562;-67
2023/07/09 06:50:25;;;;;;;;;8.00;7.50;;;;;25.39;58.96;101381.41;4966452;28;46243;-67
2023/07/09 06:52:50;;;;;;;;;9.25;6.00;;;;;25.43;59.15;101382.91;4958607;28;46996;-67
2023/07/09 06:55:16;;;;;;;;;4.00;3.00;;;;;25.45;58.91;101388.25;4962349;28;45485;-67
2023/07/09 06:57:41;;;;;;;;;6.00;5.25;;;;;25.40;58.29;101385.88;4962602;28;45373;-67
2023/07/09 07:00:08;;;;;;;;;8.75;8.00;;;;;25.46;58.70;101384.50;4946421;28;45601;-67
2023/07/09 07:02:33;;;;;;;;;8.25;8.00;;;;;25.38;58.17;101376.97;4958454;28;47179;-68
2023/07/09 07:04:58;;;;;;;;;5.75;5.75;;;;;25.41;58.47;101360.31;4966972;28;45613;-68
2023/07/09 07:07:24;;;;;;;;;7.50;6.50;;;;;25.46;58.67;101370.81;4957579;28;45447;-66
2023/07/09 07:09:49;;;;;;;;;8.00;6.00;;;;;25.47;58.85;101365.22;4959603;28;52467;-66
2023/07/09 07:12:26;;;;;;;;;6.25;6.25;;;;;25.48;58.97;101368.84;4960382;28;45369;-66
2023/07/09 07:14:52;;;;;;;;;6.50;6.50;;;;;25.46;58.93;101349.84;4959649;28;45435;-67
2023/07/09 07:17:18;;;;;;;;;4.00;4.00;;;;;25.47;58.25;101348.81;4960588;28;45283;-67
2023/07/09 07:19:43;;;;;;;;;5.75;5.75;;;;;25.52;58.72;101357.50;4958407;28;45510;-66
2023/07/09 07:22:09;;;;;;;;;5.50;5.50;;;;;25.58;58.71;101377.13;4955217;28;45583;-66
2023/07/09 07:24:34;;;;;;;;;7.50;6.00;;;;;25.61;58.33;101388.66;4954312;28;45342;-66
2023/07/09 07:26:59;;;;;;;;;7.00;7.00;;;;;25.65;58.92;101381.06;4960036;28;45393;-67
2023/07/09 07:29:25;;;;;;;;;6.00;5.75;;;;;25.65;58.48;101387.38;4965193;28;45522;-66
2023/07/09 07:31:50;;;;;;;;;8.00;8.00;;;;;25.70;57.71;101395.19;4959921;28;45411;-66
2023/07/09 07:34:15;;;;;;;;;6.00;6.00;;;;;25.74;58.00;101402.13;4960081;28;51403;-66
2023/07/09 07:36:40;;;;;;;;;7.75;5.25;;;;;25.75;58.52;101413.94;4960011;28;45586;-67
2023/07/09 07:39:06;;;;;;;;;3.50;3.50;;;;;25.80;57.86;101420.75;4962530;28;45586;-66
2023/07/09 07:41:31;;;;;;;;;5.75;5.75;;;;;25.82;57.47;101415.16;4959024;28;46510;-67
2023/07/09 07:43:57;;;;;;;;;6.50;6.50;;;;;25.84;56.99;101415.88;4958463;28;45388;-69
2023/07/09 07:46:22;;;;;;;;;6.75;5.50;;;;;25.80;57.08;101419.88;4958759;28;45406;-70
2023/07/09 07:48:47;;;;;;;;;5.50;5.50;;;;;25.83;57.64;101444.22;4958513;28;45392;-67
2023/07/09 07:51:13;;;;;;;;;6.00;6.00;;;;;25.80;57.28;101453.56;4958382;28;46121;-67
2023/07/09 07:53:38;;;;;;;;;6.25;6.00;;;;;25.83;57.55;101472.44;4956681;28;45496;-68
2023/07/09 07:56:04;;;;;;;;;6.75;5.75;;;;;25.79;57.49;101470.09;4954833;28;45554;-68
2023/07/09 07:58:30;;;;;;;;;6.00;4.75;;;;;25.77;57.26;101467.47;4956435;28;45423;-68
2023/07/09 08:00:57;;;;;;;;;7.75;7.75;;;;;25.88;58.13;101481.13;4941592;28;48387;-68
2023/07/09 08:03:23;;;;;;;;;10.50;8.00;;;;;25.91;57.56;101490.03;4959254;28;45322;-68
2023/07/09 08:05:52;;;;;;;;;9.50;8.25;;;;;25.87;58.08;101478.50;4958937;28;45274;-68
2023/07/09 08:08:17;;;;;;;;;8.25;8.25;;;;;25.93;58.44;101471.63;4953512;28;45445;-68
2023/07/09 08:10:43;;;;;;;;;8.50;8.25;;;;;25.86;58.77;101436.63;4959336;28;45505;-67
2023/07/09 08:13:08;;;;;;;;;8.00;8.00;;;;;25.91;58.69;101427.16;4958584;28;45450;-68
2023/07/09 08:15:34;;;;;;;;;7.75;7.75;;;;;25.88;58.71;101433.75;4952830;28;45246;-68
2023/07/09 08:18:00;;;;;;;;;9.00;9.00;;;;;25.84;58.95;101427.69;4953550;28;45411;-68
2023/07/09 08:20:25;;;;;;;;;11.00;10.50;;;;;25.88;58.65;101431.03;4959952;28;45477;-67
2023/07/09 08:22:50;;;;;;;;;9.50;8.00;;;;;25.91;58.72;101427.16;4965052;28;45326;-68
2023/07/09 08:25:16;;;;;;;;;12.25;11.50;;;;;25.84;58.74;101415.88;4941105;28;47888;-68
2023/07/09 08:27:41;;;;;;;;;8.00;8.00;;;;;25.87;58.56;101427.41;4960901;28;47069;-68
2023/07/09 08:30:07;;;;;;;;;7.75;7.25;;;;;25.88;59.01;101434.63;4955343;28;45291;-68
2023/07/09 08:32:32;;;;;;;;;7.75;7.75;;;;;25.85;58.88;101425.81;4957434;28;45331;-68
2023/07/09 08:34:57;;;;;;;;;10.25;9.50;;;;;25.89;59.31;101441.84;4958398;28;45342;-66
2023/07/09 08:37:23;;;;;;;;;7.25;7.25;;;;;25.88;58.22;101428.28;4957014;28;56490;-66
2023/07/09 08:39:48;;;;;;;;;7.00;7.00;;;;;25.88;58.66;101442.81;4957284;28;45984;-66
2023/07/09 08:42:17;;;;;;;;;9.25;7.50;;;;;25.86;58.53;101471.28;4955191;28;45528;-66
2023/07/09 08:45:02;;;;;;;;;11.75;8.00;;;;;25.86;58.61;101495.91;4958755;28;45436;-66
2023/07/09 08:47:39;;;;;;;;;9.00;9.00;;;;;25.87;58.77;101503.97;4953423;28;46005;-66
2023/07/09 08:50:11;;;;;;;;;6.00;5.50;;;;;25.87;58.37;101493.03;4957585;28;46552;-66
2023/07/09 08:52:50;;;;;;;;;10.75;8.00;;;;;25.88;59.11;101489.31;4951904;28;45584;-67
2023/07/09 08:55:18;;;;;;;;;7.00;7.00;;;;;25.74;59.59;101481.41;4951208;28;45465;-67
2023/07/09 08:57:50;;;;;;;;;9.75;8.25;;;;;25.80;59.58;101512.84;4963023;28;46909;-67
2023/07/09 09:00:30;;;;;;;;;7.50;7.50;;;;;25.84;59.74;101525.25;4961891;28;46134;-67
2023/07/09 09:03:11;;;;;;;;;10.00;9.00;;;;;25.85;59.44;101532.47;4958014;28;45691;-67
2023/07/09 09:05:42;;;;;;;;;9.75;9.75;;;;;25.85;59.94;101527.88;4967565;28;45398;-67
2023/07/09 09:08:47;;;;;;;;;8.75;8.75;;;;;25.74;59.83;101511.50;4971715;28;46835;-67
2023/07/09 09:11:22;;;;;;;;;15.25;13.00;;;;;25.78;59.94;101512.97;4949803;28;45603;-66
2023/07/09 09:13:51;;;;;;;;;8.00;8.00;;;;;25.74;59.86;101507.91;4963848;28;45598;-67
2023/07/09 09:16:24;;;;;;;;;8.25;8.25;;;;;25.72;59.93;101491.63;4962389;28;45619;-67
2023/07/09 09:18:55;;;;;;;;;10.25;10.00;;;;;25.72;59.34;101483.41;4954722;28;45397;-67
2023/07/09 09:21:25;;;;;;;;;8.25;8.25;;;;;25.67;59.41;101475.59;4959023;28;46168;-67
2023/07/09 09:23:58;;;;;;;;;10.00;8.75;;;;;25.65;60.43;101472.13;4946995;28;45509;-67
2023/07/09 09:26:31;;;;;;;;;6.50;6.50;;;;;25.62;59.40;101460.59;4958789;28;45491;-67
2023/07/09 09:28:56;;;;;;;;;7.50;6.25;;;;;25.55;59.40;101448.47;4958803;28;45515;-67
2023/07/09 09:31:26;;;;;;;;;10.00;9.75;;;;;25.54;59.41;101460.38;4962273;28;45599;-66
2023/07/09 09:33:52;;;;;;;;;10.50;8.75;;;;;25.57;59.44;101460.97;4951608;28;46342;-66
2023/07/09 09:36:24;;;;;;;;;6.50;6.50;;;;;25.61;59.97;101464.31;4965600;28;45343;-66
2023/07/09 09:38:50;;;;;;;;;7.00;6.00;;;;;25.65;58.78;101477.59;4948951;28;45578;-65
2023/07/09 09:41:21;;;;;;;;;8.00;8.00;;;;;25.64;59.49;101470.41;4961954;28;46376;-66
2023/07/09 09:43:49;;;;;;;;;10.00;9.00;;;;;25.67;59.59;101486.53;4961228;28;45360;-65
2023/07/09 09:46:24;;;;;;;;;10.00;7.00;;;;;25.68;59.18;101507.44;4960478;28;45421;-65
2023/07/09 09:48:53;;;;;;;;;6.75;6.75;;;;;25.65;59.56;101515.88;4965612;28;45318;-66
2023/07/09 09:51:19;;;;;;;;;6.50;6.50;;;;;25.67;59.85;101519.34;4961702;28;45538;-66
2023/07/09 09:53:49;;;;;;;;;7.00;6.25;;;;;25.68;60.77;101521.09;4972973;28;45421;-66
2023/07/09 09:56:20;;;;;;;;;6.50;6.00;;;;;25.72;60.90;101527.16;4945522;28;45651;-66
2023/07/09 09:58:51;;;;;;;;;6.00;6.00;;;;;25.73;61.59;101528.91;4950057;28;45957;-66
2023/07/09 10:01:18;;;;;;;;;10.25;8.25;;;;;25.75;61.67;101529.66;4956561;28;46390;-66
2023/07/09 10:03:47;;;;;;;;;7.00;7.00;;;;;25.76;60.81;101527.78;4952443;28;45545;-66
2023/07/09 10:06:27;;;;;;;;;6.50;6.50;;;;;25.72;61.58;101529.91;4955426;28;45619;-67
2023/07/09 10:09:27;;;;;;;;;8.00;8.00;;;;;25.73;61.03;101545.31;4942573;28;45497;-67
2023/07/09 10:12:23;;;;;;;;;6.75;6.75;;;;;25.70;59.97;101537.38;4940077;28;46302;-67
2023/07/09 10:15:16;;;;;;;;;7.75;7.00;;;;;25.62;60.05;101509.81;4945488;28;45682;-67
2023/07/09 10:17:41;;;;;;;;;10.00;10.00;;;;;25.62;60.19;101474.25;4953647;28;45861;-67
2023/07/09 10:20:28;;;;;;;;;9.67;8.67;;;;;25.55;60.85;101437.53;4950971;28;45553;-66
2023/07/09 10:23:18;;;;;;;;;11.00;9.75;;;;;25.51;61.08;101426.00;4954337;28;45915;-66
2023/07/09 10:26:09;;;;;;;;;8.50;7.00;;;;;25.47;61.68;101449.09;4959898;28;45401;-63
2023/07/09 10:28:55;;;;;;;;;9.00;8.25;;;;;25.47;61.57;101441.75;4970072;28;45373;-63
2023/07/09 10:31:34;;;;;;;;;7.50;7.00;;;;;25.48;61.61;101445.38;4949525;28;45519;-63
2023/07/09 10:34:24;;;;;;;;;8.25;8.25;;;;;25.47;61.75;101447.22;4951853;28;45505;-62
2023/07/09 10:37:11;;;;;;;;;8.25;8.25;;;;;25.49;62.07;101464.38;4959603;28;45691;-62
2023/07/09 10:39:42;;;;;;;;;8.25;7.75;;;;;25.48;61.47;101470.84;4952334;28;45436;-63
2023/07/09 10:42:21;;;;;;;;;7.00;7.00;;;;;25.44;62.22;101465.75;4959521;28;45347;-63
2023/07/09 10:44:54;;;;;;;;;7.50;7.00;;;;;25.54;62.33;101495.91;4961204;28;45413;-63
2023/07/09 10:47:34;;;;;;;;;8.50;8.50;;;;;25.55;60.68;101497.66;4959057;28;45651;-63
2023/07/09 10:50:03;;;;;;;;;7.75;7.75;;;;;25.51;61.07;101497.91;4962224;28;45467;-63
2023/07/09 10:52:34;;;;;;;;;7.75;7.75;;;;;25.52;62.08;101496.03;4956641;28;45579;-63
2023/07/09 10:55:13;;;;;;;;;8.50;7.75;;;;;25.50;62.64;101485.22;4957002;28;45459;-63
2023/07/09 10:57:58;;;;;;;;;7.75;7.00;;;;;25.58;62.07;101498.25;4957957;28;45891;-63
2023/07/09 11:00:37;;;;;;;;;9.00;6.50;;;;;25.59;61.40;101494.50;4960741;28;45464;-63
2023/07/09 11:03:19;;;;;;;;;9.75;8.00;;;;;25.64;61.44;101489.56;4950966;28;45480;-63
2023/07/09 11:05:45;;;;;;;;;10.25;10.25;;;;;25.65;60.67;101491.28;4958739;28;45797;-63
2023/07/09 11:08:36;;;;;;;;;10.75;8.50;;;;;25.63;61.90;101485.06;4960144;28;45451;-63
2023/07/09 11:11:16;;;;;;;;;9.00;9.00;;;;;25.71;62.90;101489.91;4952339;28;45419;-63
2023/07/09 11:13:49;;;;;;;;;8.25;8.25;;;;;25.72;63.08;101457.94;4964114;28;46371;-63
2023/07/09 11:16:47;;;;;;;;;14.25;13.75;;;;;25.82;62.06;101462.50;4966731;28;45354;-63
2023/07/09 11:19:17;;;;;;;;;11.00;10.50;;;;;25.86;62.77;101463.97;4939699;28;45621;-63
2023/07/09 11:22:09;;;;;;;;;10.25;10.25;;;;;25.94;62.22;101460.56;4955443;28;45682;-63
2023/07/09 11:25:07;;;;;;;;;7.25;7.25;;;;;26.01;61.83;101458.19;4955358;28;45393;-63
2023/07/09 11:27:33;;;;;;;;;7.75;7.75;;;;;25.99;60.51;101438.31;4952648;28;45550;-63
2023/07/09 11:30:17;;;;;;;;;9.00;8.00;;;;;26.05;59.69;101446.84;4950262;28;45462;-63